createdAt,value
2023-02-11T00:01:34.025Z,32.22
2023-02-11T00:04:35.410Z,28.05
2023-02-11T00:07:37.574Z,35.55
2023-02-11T00:10:39.006Z,34.65
2023-02-11T00:13:41.325Z,34.45
2023-02-11T00:16:42.916Z,40.15
2023-02-11T00:19:44.397Z,33.85
2023-02-11T00:22:46.321Z,36.95
2023-02-11T00:25:47.756Z,37.30
2023-02-11T00:28:50.429Z,34.53
2023-02-11T00:31:52.012Z,33.73
2023-02-11T00:34:53.532Z,34.45
2023-02-11T00:37:55.544Z,32.35
2023-02-11T00:40:57.147Z,30.25
2023-02-11T00:44:01.475Z,34.22
2023-02-11T00:47:02.909Z,34.20
2023-02-11T00:50:05.615Z,29.73
2023-02-11T00:53:07.058Z,40.90
2023-02-11T00:56:08.962Z,36.25
2023-02-11T00:59:10.757Z,36.83
2023-02-11T01:02:12.145Z,36.70
2023-02-11T01:05:13.640Z,42.92
2023-02-11T01:08:15.132Z,38.33
2023-02-11T01:11:20.652Z,42.72
2023-02-11T01:14:22.275Z,35.35
2023-02-11T01:17:26.016Z,44.25
2023-02-11T01:20:29.063Z,41.65
2023-02-11T01:23:31.502Z,43.83
2023-02-11T01:26:33.117Z,43.55
2023-02-11T01:29:34.510Z,42.95
2023-02-11T01:32:36.380Z,39.63
2023-02-11T01:35:39.123Z,39.70
2023-02-11T01:38:41.009Z,53.03
2023-02-11T01:41:42.559Z,38.10
2023-02-11T01:44:44.315Z,41.50
2023-02-11T01:47:45.729Z,44.50
2023-02-11T01:50:50.618Z,46.55
2023-02-11T01:53:53.395Z,45.97
2023-02-11T01:56:57.779Z,40.58
2023-02-11T02:00:12.746Z,38.55
2023-02-11T02:03:22.349Z,41.35
2023-02-11T02:06:40.498Z,38.35
2023-02-11T02:09:48.147Z,40.63
2023-02-11T02:12:49.596Z,36.70
2023-02-11T02:15:56.314Z,38.17
2023-02-11T02:19:19.086Z,39.95
2023-02-11T02:22:34.995Z,36.40
2023-02-11T02:25:58.038Z,35.17
2023-02-11T02:29:20.564Z,46.13
2023-02-11T02:32:43.935Z,36.17
2023-02-11T02:36:00.490Z,43.00
2023-02-11T02:39:10.441Z,36.63
2023-02-11T02:42:12.901Z,41.25
2023-02-11T02:45:14.765Z,37.55
2023-02-11T02:48:35.005Z,36.78
2023-02-11T02:51:52.472Z,40.30
2023-02-11T02:55:17.058Z,40.42
2023-02-11T02:58:57.076Z,35.92
2023-02-11T03:02:23.195Z,37.55
2023-02-11T03:06:00.645Z,34.95
2023-02-11T03:09:28.128Z,39.35
2023-02-11T03:12:32.030Z,38.25
2023-02-11T03:15:41.162Z,34.70
2023-02-11T03:18:47.751Z,36.08
2023-02-11T03:21:51.637Z,30.67
2023-02-11T03:24:55.266Z,36.33
2023-02-11T03:28:08.985Z,34.13
2023-02-11T03:34:38.717Z,30.30
2023-02-11T03:37:50.653Z,29.63
2023-02-11T03:40:55.591Z,30.95
2023-02-11T03:43:59.315Z,33.28
2023-02-11T03:47:03.792Z,28.33
2023-02-11T03:50:10.090Z,30.02
2023-02-11T03:53:14.055Z,32.08
2023-02-11T03:56:21.491Z,29.70
2023-02-11T03:59:22.955Z,26.00
2023-02-11T04:02:28.933Z,30.92
2023-02-11T04:05:30.405Z,37.40
2023-02-11T04:08:31.883Z,29.33
2023-02-11T04:11:33.343Z,33.38
2023-02-11T04:14:34.908Z,29.73
2023-02-11T04:17:36.843Z,31.83
2023-02-11T04:20:38.488Z,23.25
2023-02-11T04:23:39.939Z,28.38
2023-02-11T04:26:41.377Z,25.55
2023-02-11T04:29:42.816Z,27.95
2023-02-11T04:32:44.440Z,28.52
2023-02-11T04:35:46.071Z,31.95
2023-02-11T04:38:47.573Z,27.73
2023-02-11T04:41:49.113Z,27.60
2023-02-11T04:44:50.560Z,25.48
2023-02-11T04:47:52.199Z,22.95
2023-02-11T04:50:53.738Z,27.35
2023-02-11T04:53:55.258Z,28.25
2023-02-11T04:56:56.746Z,28.88
2023-02-11T04:59:58.205Z,23.85
2023-02-11T05:02:59.664Z,29.60
2023-02-11T05:06:01.291Z,31.42
2023-02-11T05:09:02.792Z,28.35
2023-02-11T05:12:04.328Z,33.20
2023-02-11T05:15:06.218Z,27.58
2023-02-11T05:18:07.690Z,33.88
2023-02-11T05:21:11.445Z,24.88
2023-02-11T05:24:12.846Z,31.90
2023-02-11T05:27:14.315Z,31.52
2023-02-11T05:30:15.915Z,32.33
2023-02-11T05:33:17.347Z,28.80
2023-02-11T05:36:18.786Z,30.55
2023-02-11T05:39:20.279Z,27.10
2023-02-11T05:42:21.742Z,34.35
2023-02-11T05:45:23.151Z,25.95
2023-02-11T05:48:24.573Z,26.48
2023-02-11T05:51:25.978Z,30.63
2023-02-11T05:54:27.415Z,36.72
2023-02-11T05:57:28.890Z,22.20
2023-02-11T06:00:30.344Z,28.70
2023-02-11T06:03:31.864Z,22.58
2023-02-11T06:06:33.294Z,30.17
2023-02-11T06:09:34.791Z,30.67
2023-02-11T06:12:37.244Z,28.48
2023-02-11T06:15:38.904Z,28.58
2023-02-11T06:18:40.372Z,33.53
2023-02-11T06:21:44.175Z,28.80
2023-02-11T06:25:00.440Z,33.15
2023-02-11T06:28:03.077Z,28.02
2023-02-11T06:31:06.915Z,30.02
2023-02-11T06:34:09.404Z,29.10
2023-02-11T06:37:10.897Z,26.27
2023-02-11T06:40:12.797Z,29.70
2023-02-11T06:43:14.225Z,21.48
2023-02-11T06:46:16.182Z,27.52
2023-02-11T06:49:17.638Z,25.88
2023-02-11T06:52:19.050Z,27.92
2023-02-11T06:55:20.430Z,24.42
2023-02-11T06:58:21.854Z,29.15
2023-02-11T07:01:24.704Z,28.77
2023-02-11T07:04:26.123Z,28.08
2023-02-11T07:07:27.893Z,31.98
2023-02-11T07:10:29.337Z,30.45
2023-02-11T07:13:30.752Z,28.83
2023-02-11T07:16:32.448Z,33.60
2023-02-11T07:19:33.864Z,34.70
2023-02-11T07:22:35.313Z,33.13
2023-02-11T07:25:36.769Z,35.72
2023-02-11T07:28:39.009Z,38.92
2023-02-11T07:31:40.515Z,42.63
2023-02-11T07:34:42.234Z,36.05
2023-02-11T07:37:43.750Z,33.47
2023-02-11T07:40:45.133Z,32.88
2023-02-11T07:43:47.223Z,32.65
2023-02-11T07:46:48.750Z,36.83
2023-02-11T07:49:50.187Z,30.83
2023-02-11T07:52:51.628Z,33.70
2023-02-11T07:55:53.172Z,45.65
2023-02-11T07:58:55.705Z,37.60
2023-02-11T08:01:57.203Z,36.88
2023-02-11T08:04:58.612Z,37.08
2023-02-11T08:08:00.116Z,34.85
2023-02-11T08:11:17.839Z,35.88
2023-02-11T08:14:19.541Z,39.67
2023-02-11T08:17:20.960Z,34.70
2023-02-11T08:20:22.343Z,31.17
2023-02-11T08:23:23.767Z,31.35
2023-02-11T08:26:27.587Z,35.55
2023-02-11T08:29:29.070Z,39.05
2023-02-11T08:32:30.481Z,29.27
2023-02-11T08:35:31.905Z,39.03
2023-02-11T08:38:33.346Z,32.22
2023-02-11T08:41:35.517Z,36.75
2023-02-11T08:44:36.955Z,36.30
2023-02-11T08:47:39.232Z,31.17
2023-02-11T08:50:40.656Z,31.38
2023-02-11T08:53:42.107Z,30.13
2023-02-11T08:56:43.816Z,25.65
2023-02-11T08:59:45.219Z,28.80
2023-02-11T09:02:46.608Z,29.42
2023-02-11T09:05:49.981Z,27.15
2023-02-11T09:08:54.107Z,29.17
2023-02-11T09:11:55.569Z,29.75
2023-02-11T09:14:57.104Z,31.92
2023-02-11T09:17:59.155Z,28.35
2023-02-11T09:21:09.330Z,31.42
2023-02-11T09:24:11.529Z,31.67
2023-02-11T09:27:12.947Z,31.77
2023-02-11T09:30:14.410Z,30.48
2023-02-11T09:33:15.841Z,30.30
2023-02-11T09:36:23.118Z,33.90
2023-02-11T09:39:24.526Z,30.52
2023-02-11T09:42:28.920Z,23.85
2023-02-11T09:45:31.241Z,27.13
2023-02-11T09:48:40.313Z,25.90
2023-02-11T09:51:58.619Z,23.77
2023-02-11T09:55:02.720Z,24.65
2023-02-11T09:58:11.206Z,20.42
2023-02-11T10:01:38.016Z,23.30
2023-02-11T10:04:51.668Z,23.92
2023-02-11T10:11:22.694Z,22.85
2023-02-11T10:14:43.028Z,18.17
2023-02-11T10:17:53.271Z,26.95
2023-02-11T10:21:13.551Z,22.73
2023-02-11T10:24:16.872Z,25.23
2023-02-11T10:27:22.009Z,22.75
2023-02-11T10:30:32.364Z,18.55
2023-02-11T10:33:36.625Z,24.77
2023-02-11T10:36:41.001Z,20.50
2023-02-11T10:39:42.640Z,24.23
2023-02-11T10:42:48.190Z,20.60
2023-02-11T10:45:54.645Z,19.77
2023-02-11T10:48:56.203Z,21.65
2023-02-11T10:52:15.387Z,22.55
2023-02-11T10:55:20.055Z,29.35
2023-02-11T10:58:28.570Z,18.63
2023-02-11T11:01:49.827Z,17.83
2023-02-11T11:04:56.874Z,27.58
2023-02-11T11:08:01.874Z,22.17
2023-02-11T11:11:08.868Z,16.92
2023-02-11T11:14:19.635Z,33.15
2023-02-11T11:17:21.164Z,27.63
2023-02-11T11:20:24.547Z,25.75
2023-02-11T11:26:52.963Z,23.70
2023-02-11T11:29:56.237Z,23.50
2023-02-11T11:32:58.838Z,19.30
2023-02-11T11:36:07.900Z,23.30
2023-02-11T11:39:23.438Z,17.63
2023-02-11T11:42:33.397Z,19.27
2023-02-11T11:45:34.802Z,14.43
2023-02-11T11:48:40.198Z,13.65
2023-02-11T11:51:47.472Z,19.38
2023-02-11T11:54:58.806Z,19.80
2023-02-11T11:58:00.553Z,18.13
2023-02-11T12:01:25.351Z,17.98
2023-02-11T12:04:58.072Z,24.00
2023-02-11T12:08:07.438Z,9.88
2023-02-11T12:11:47.532Z,20.27
2023-02-11T12:15:07.887Z,17.02
2023-02-11T12:18:23.340Z,12.00
2023-02-11T12:21:55.776Z,22.48
2023-02-11T12:25:17.169Z,19.27
2023-02-11T12:28:32.042Z,12.68
2023-02-11T12:31:55.676Z,14.70
2023-02-11T12:35:14.087Z,15.48
2023-02-11T12:38:38.446Z,8.60
2023-02-11T12:42:03.299Z,15.00
2023-02-11T12:45:09.298Z,18.33
2023-02-11T12:48:22.935Z,13.93
2023-02-11T12:51:56.520Z,17.13
2023-02-11T12:55:08.306Z,13.95
2023-02-11T12:58:19.830Z,14.52
2023-02-11T13:01:30.991Z,10.13
2023-02-11T13:04:41.143Z,14.63
2023-02-11T13:07:46.233Z,14.98
2023-02-11T13:10:53.358Z,12.73
2023-02-11T13:14:00.449Z,12.65
2023-02-11T13:17:11.030Z,13.50
2023-02-11T13:20:25.267Z,13.98
2023-02-11T13:23:41.368Z,13.63
2023-02-11T13:27:24.901Z,16.92
2023-02-11T13:30:30.339Z,14.98
2023-02-11T13:33:39.821Z,17.70
2023-02-11T13:36:41.553Z,18.38
2023-02-11T13:39:42.961Z,23.33
2023-02-11T13:42:57.110Z,18.95
2023-02-11T13:46:05.354Z,21.67
2023-02-11T13:49:23.081Z,31.63
2023-02-11T13:52:27.040Z,27.90
2023-02-11T13:55:29.390Z,30.83
2023-02-11T13:58:30.727Z,29.77
2023-02-11T14:01:47.062Z,25.52
2023-02-11T14:05:03.837Z,39.47
2023-02-11T14:08:11.196Z,29.08
2023-02-11T14:11:24.775Z,27.58
2023-02-11T14:17:29.294Z,21.80
2023-02-11T14:20:40.877Z,19.92
2023-02-11T14:23:42.354Z,16.85
2023-02-11T14:26:49.886Z,19.52
2023-02-11T14:30:13.466Z,21.15
2023-02-11T14:33:45.994Z,18.88
2023-02-11T14:36:56.124Z,23.58
2023-02-11T14:40:39.727Z,20.25
2023-02-11T14:43:47.683Z,21.35
2023-02-11T14:46:51.178Z,23.15
2023-02-11T14:49:53.690Z,27.05
2023-02-11T14:52:58.852Z,25.70
2023-02-11T14:56:00.575Z,24.60
2023-02-11T14:59:01.999Z,19.38
2023-02-11T15:02:03.675Z,21.15
2023-02-11T15:05:27.367Z,20.83
2023-02-11T15:08:30.080Z,28.40
2023-02-11T15:11:42.918Z,19.42
2023-02-11T15:14:49.544Z,21.07
2023-02-11T15:17:51.069Z,22.30
2023-02-11T15:20:53.342Z,23.92
2023-02-11T15:24:00.043Z,27.40
2023-02-11T15:27:12.226Z,27.05
2023-02-11T15:30:22.632Z,35.17
2023-02-11T15:33:24.120Z,26.52
2023-02-11T15:36:25.874Z,24.65
2023-02-11T15:39:32.849Z,38.58
2023-02-11T15:42:50.674Z,29.52
2023-02-11T15:46:00.914Z,29.77
2023-02-11T15:49:02.433Z,31.77
2023-02-11T15:52:04.358Z,39.40
2023-02-11T15:55:06.097Z,28.15
2023-02-11T15:58:10.174Z,28.00
2023-02-11T16:01:12.312Z,30.60
2023-02-11T16:04:26.156Z,30.33
2023-02-11T16:07:44.708Z,85.63
2023-02-11T16:11:00.948Z,42.38
2023-02-11T16:14:19.243Z,33.83
2023-02-11T16:17:27.428Z,50.83
2023-02-11T16:20:29.023Z,35.25
2023-02-11T16:23:37.291Z,30.70
2023-02-11T16:26:41.543Z,33.03
2023-02-11T16:29:46.550Z,30.88
2023-02-11T16:32:47.979Z,27.15
2023-02-11T16:35:49.599Z,24.98
2023-02-11T16:38:51.019Z,34.90
2023-02-11T16:41:52.405Z,28.73
2023-02-11T16:44:54.052Z,30.15
2023-02-11T16:47:55.680Z,33.13
2023-02-11T16:50:57.540Z,35.03
2023-02-11T16:53:59.108Z,30.05
2023-02-11T16:57:01.601Z,30.02
2023-02-11T17:00:04.978Z,41.55
2023-02-11T17:03:08.031Z,34.45
2023-02-11T17:06:11.299Z,36.50
2023-02-11T17:09:20.429Z,46.42
2023-02-11T17:12:22.090Z,49.72
2023-02-11T17:15:23.554Z,42.53
2023-02-11T17:18:24.970Z,35.60
2023-02-11T17:21:29.486Z,32.60
2023-02-11T17:24:31.674Z,28.00
2023-02-11T17:27:33.224Z,25.25
2023-02-11T17:30:35.095Z,32.03
2023-02-11T17:33:36.817Z,34.47
2023-02-11T17:36:38.317Z,37.55
2023-02-11T17:39:40.399Z,38.13
2023-02-11T17:42:42.205Z,38.75
2023-02-11T17:45:43.692Z,35.42
2023-02-11T17:48:45.224Z,31.67
2023-02-11T17:51:46.864Z,31.25
2023-02-11T17:54:48.287Z,42.00
2023-02-11T17:57:49.692Z,44.70
2023-02-11T18:00:51.177Z,59.42
2023-02-11T18:03:52.642Z,66.72
2023-02-11T18:06:54.124Z,60.50
2023-02-11T18:09:55.526Z,57.25
2023-02-11T18:12:57.240Z,72.55
2023-02-11T18:16:02.863Z,79.63
2023-02-11T18:19:05.368Z,62.40
2023-02-11T18:22:06.764Z,38.28
2023-02-11T18:25:08.887Z,44.13
2023-02-11T18:28:10.325Z,36.33
2023-02-11T18:31:12.376Z,32.67
2023-02-11T18:34:13.920Z,32.72
2023-02-11T18:37:15.429Z,40.63
2023-02-11T18:40:16.879Z,42.30
2023-02-11T18:43:21.599Z,36.05
2023-02-11T18:46:23.088Z,42.25
2023-02-11T18:49:24.654Z,38.92
2023-02-11T18:52:26.137Z,38.83
2023-02-11T18:55:27.576Z,51.63
2023-02-11T18:58:28.997Z,41.00
2023-02-11T19:01:31.846Z,33.25
2023-02-11T19:04:35.222Z,37.30
2023-02-11T19:10:42.545Z,36.92
2023-02-11T19:13:44.583Z,32.55
2023-02-11T19:16:46.665Z,31.85
2023-02-11T19:19:48.223Z,37.67
2023-02-11T19:22:50.153Z,35.33
2023-02-11T19:25:51.886Z,33.67
2023-02-11T19:28:53.818Z,31.83
2023-02-11T19:31:55.881Z,44.28
2023-02-11T19:34:57.349Z,39.53
2023-02-11T19:37:58.738Z,39.17
2023-02-11T19:41:00.245Z,36.25
2023-02-11T19:44:02.564Z,37.92
2023-02-11T19:47:04.523Z,35.78
2023-02-11T19:50:06.574Z,33.20
2023-02-11T19:53:07.984Z,46.05
2023-02-11T19:56:09.910Z,53.00
2023-02-11T19:59:11.697Z,39.60
2023-02-11T20:02:13.522Z,35.40
2023-02-11T20:05:15.040Z,38.85
2023-02-11T20:08:16.482Z,44.47
2023-02-11T20:11:17.940Z,39.85
2023-02-11T20:14:19.399Z,39.42
2023-02-11T20:17:20.837Z,46.05
2023-02-11T20:20:22.251Z,50.83
2023-02-11T20:23:23.735Z,46.90
2023-02-11T20:26:31.788Z,44.13
2023-02-11T20:29:33.201Z,41.42
2023-02-11T20:32:34.643Z,45.22
2023-02-11T20:35:36.246Z,41.00
2023-02-11T20:38:37.801Z,39.90
2023-02-11T20:41:39.241Z,44.42
2023-02-11T20:44:41.230Z,41.35
2023-02-11T20:47:42.633Z,41.17
2023-02-11T20:50:46.570Z,40.50
2023-02-11T20:53:50.090Z,45.90
2023-02-11T20:56:53.011Z,39.17
2023-02-11T20:59:54.438Z,46.67
2023-02-11T21:02:55.843Z,39.08
2023-02-11T21:06:00.043Z,34.72
2023-02-11T21:09:02.433Z,31.83
2023-02-11T21:12:04.109Z,45.72
2023-02-11T21:15:05.910Z,45.20
2023-02-11T21:18:07.340Z,33.45
2023-02-11T21:21:09.131Z,30.80
2023-02-11T21:24:11.421Z,43.45
2023-02-11T21:27:12.852Z,47.20
2023-02-11T21:30:14.418Z,34.75
2023-02-11T21:33:15.821Z,33.13
2023-02-11T21:36:17.713Z,39.33
2023-02-11T21:39:19.669Z,34.97
2023-02-11T21:42:22.468Z,38.03
2023-02-11T21:45:25.653Z,37.47
2023-02-11T21:48:27.113Z,43.80
2023-02-11T21:51:28.719Z,43.30
2023-02-11T21:54:30.161Z,43.30
2023-02-11T21:57:31.727Z,57.25
2023-02-11T22:00:33.632Z,51.53
2023-02-11T22:03:35.111Z,40.22
2023-02-11T22:06:36.547Z,43.42
2023-02-11T22:09:38.816Z,43.70
2023-02-11T22:12:40.268Z,45.17
2023-02-11T22:15:41.700Z,34.28
2023-02-11T22:18:43.634Z,31.77
2023-02-11T22:21:45.046Z,24.30
2023-02-11T22:24:46.796Z,21.67
2023-02-11T22:27:48.552Z,21.27
2023-02-11T22:30:54.546Z,21.95
2023-02-11T22:33:57.183Z,15.85
2023-02-11T22:36:58.661Z,16.47
2023-02-11T22:40:00.195Z,13.93
2023-02-11T22:43:01.609Z,14.07
2023-02-11T22:46:05.813Z,15.55
2023-02-11T22:49:07.324Z,12.93
2023-02-11T22:52:08.764Z,12.50
2023-02-11T22:55:10.215Z,11.07
2023-02-11T22:58:11.851Z,14.00
2023-02-11T23:01:13.540Z,11.57
2023-02-11T23:04:16.595Z,13.80
2023-02-11T23:07:17.986Z,15.02
2023-02-11T23:10:19.524Z,12.07
2023-02-11T23:13:21.196Z,18.23
2023-02-11T23:16:25.679Z,14.98
2023-02-11T23:19:27.102Z,17.02
2023-02-11T23:22:28.478Z,21.20
2023-02-11T23:25:30.762Z,13.50
2023-02-11T23:28:32.193Z,12.50
2023-02-11T23:31:36.830Z,11.18
2023-02-11T23:34:38.322Z,13.13
2023-02-11T23:37:39.729Z,11.05
2023-02-11T23:40:42.068Z,7.78
2023-02-11T23:43:43.800Z,11.02
2023-02-11T23:46:45.212Z,10.63
2023-02-11T23:49:46.598Z,9.10
2023-02-11T23:52:48.016Z,7.32
2023-02-11T23:55:49.531Z,6.88
2023-02-11T23:58:53.670Z,6.22
